createdAt,value
2019-04-01T00:02:26.000Z,20.17
2019-04-01T00:12:26.000Z,20.17
2019-04-01T00:22:26.000Z,20.2
2019-04-01T00:32:26.000Z,20.23
2019-04-01T00:42:26.000Z,20.25
2019-04-01T00:52:26.000Z,20.26
2019-04-01T01:02:26.000Z,20.27
2019-04-01T01:12:26.000Z,20.29
2019-04-01T01:22:26.000Z,20.32
2019-04-01T01:32:26.000Z,20.29
2019-04-01T01:42:26.000Z,20.23
2019-04-01T01:52:26.000Z,20.25
2019-04-01T02:02:26.000Z,20.24
2019-04-01T02:12:26.000Z,20.27
2019-04-01T02:22:26.000Z,20.28
2019-04-01T02:32:26.000Z,20.27
2019-04-01T02:42:26.000Z,20.27
2019-04-01T02:52:26.000Z,20.36
2019-04-01T03:02:26.000Z,20.36
2019-04-01T03:12:26.000Z,20.33
2019-04-01T03:22:26.000Z,20.36
2019-04-01T03:32:26.000Z,20.36
2019-04-01T03:42:26.000Z,20.35
2019-04-01T03:52:26.000Z,20.39
2019-04-01T04:02:26.000Z,20.45
2019-04-01T04:12:26.000Z,20.53
2019-04-01T04:22:26.000Z,20.56
2019-04-01T04:32:26.000Z,20.61
2019-04-01T04:42:26.000Z,20.65
2019-04-01T04:52:26.000Z,20.68
2019-04-01T05:02:26.000Z,20.73
2019-04-01T05:12:26.000Z,20.84
2019-04-01T05:22:26.000Z,20.87
2019-04-01T05:32:26.000Z,20.9
2019-04-01T05:42:26.000Z,20.98
2019-04-01T05:52:26.000Z,21.03
2019-04-01T06:02:26.000Z,21.05
2019-04-01T06:12:27.000Z,21.07
2019-04-01T06:22:26.000Z,21.18
2019-04-01T06:32:26.000Z,21.26
2019-04-01T06:42:26.000Z,21.32
2019-04-01T06:52:26.000Z,21.5
2019-04-01T07:02:26.000Z,21.55
2019-04-01T07:12:27.000Z,21.64
2019-04-01T07:22:27.000Z,21.65
2019-04-01T07:32:27.000Z,21.86
2019-04-01T07:42:27.000Z,22.11
2019-04-01T07:52:27.000Z,22.35
2019-04-01T08:02:27.000Z,22.47
2019-04-01T08:12:27.000Z,22.65
2019-04-01T08:22:27.000Z,22.81
2019-04-01T08:32:27.000Z,22.9
2019-04-01T08:42:27.000Z,23.02
2019-04-01T08:52:27.000Z,23.19
2019-04-01T09:02:27.000Z,23.34
2019-04-01T09:12:27.000Z,23.52
2019-04-01T09:22:27.000Z,23.7
2019-04-01T09:32:27.000Z,23.88
2019-04-01T09:42:27.000Z,23.92
2019-04-01T09:52:27.000Z,24.06
2019-04-01T10:02:27.000Z,24.21
2019-04-01T10:12:27.000Z,24.43
2019-04-01T10:22:27.000Z,24.57
2019-04-01T10:32:27.000Z,24.74
2019-04-01T10:42:27.000Z,24.78
2019-04-01T10:52:27.000Z,25.06
2019-04-01T11:02:27.000Z,25.28
2019-04-01T11:12:27.000Z,25.44
2019-04-01T11:22:27.000Z,25.63
2019-04-01T11:32:27.000Z,25.74
2019-04-01T11:42:27.000Z,25.85
2019-04-01T11:52:27.000Z,25.94
2019-04-01T12:02:27.000Z,26.04
2019-04-01T12:12:27.000Z,26.09
2019-04-01T12:22:27.000Z,26.08
2019-04-01T12:32:27.000Z,26.07
2019-04-01T12:42:27.000Z,26.03
2019-04-01T12:52:27.000Z,26.02
2019-04-01T13:02:27.000Z,25.96
2019-04-01T13:12:28.000Z,25.92
2019-04-01T13:22:27.000Z,25.96
2019-04-01T13:42:27.000Z,25.82
2019-04-01T13:52:27.000Z,25.77
2019-04-01T14:02:27.000Z,25.77
2019-04-01T14:12:27.000Z,25.74
2019-04-01T14:22:27.000Z,25.72
2019-04-01T14:32:27.000Z,25.7
2019-04-01T14:42:27.000Z,25.66
2019-04-01T14:52:27.000Z,25.6
2019-04-01T15:02:29.000Z,25.56
2019-04-01T15:12:27.000Z,25.48
2019-04-01T15:22:27.000Z,25.39
2019-04-01T15:32:28.000Z,25.32
2019-04-01T15:42:28.000Z,25.26
2019-04-01T15:52:28.000Z,25.18
2019-04-01T16:02:28.000Z,25.16
2019-04-01T16:12:28.000Z,25.05
2019-04-01T16:22:28.000Z,25.02
2019-04-01T16:32:28.000Z,25.02
2019-04-01T16:42:28.000Z,24.95
2019-04-01T16:52:28.000Z,24.88
2019-04-01T17:02:28.000Z,24.81
2019-04-01T17:12:28.000Z,24.75
2019-04-01T17:22:28.000Z,24.75
2019-04-01T17:32:28.000Z,25.01
2019-04-01T17:42:28.000Z,25.01
2019-04-01T17:52:28.000Z,24.79
2019-04-01T18:12:28.000Z,24.38
2019-04-01T18:22:28.000Z,24.33
2019-04-01T18:32:28.000Z,24.34
2019-04-01T18:42:28.000Z,24.28
2019-04-01T18:52:28.000Z,24.12
2019-04-01T19:02:29.000Z,24.08
2019-04-01T19:12:28.000Z,24.04
2019-04-01T19:22:28.000Z,23.99
2019-04-01T19:32:28.000Z,23.93
2019-04-01T19:42:28.000Z,23.89
2019-04-01T19:52:28.000Z,23.91
2019-04-01T20:02:28.000Z,23.89
2019-04-01T20:12:28.000Z,23.84
2019-04-01T20:22:28.000Z,23.8
2019-04-01T20:32:28.000Z,23.72
2019-04-01T20:42:28.000Z,23.72
2019-04-01T20:52:30.000Z,23.65
2019-04-01T21:02:28.000Z,23.63
2019-04-01T21:12:28.000Z,23.59
2019-04-01T21:22:28.000Z,23.59
2019-04-01T21:32:28.000Z,23.45
2019-04-01T21:42:28.000Z,23.38
2019-04-01T21:52:29.000Z,23.27
2019-04-01T22:02:28.000Z,23.23
2019-04-01T22:12:28.000Z,23.16
2019-04-01T22:22:28.000Z,23.08
2019-04-01T22:32:28.000Z,23.03
2019-04-01T22:42:28.000Z,22.98
2019-04-01T22:52:28.000Z,22.89
2019-04-01T23:02:28.000Z,22.83
2019-04-01T23:12:28.000Z,22.76
2019-04-01T23:22:30.000Z,22.72
2019-04-01T23:32:28.000Z,22.67
2019-04-01T23:42:29.000Z,22.63
2019-04-01T23:52:29.000Z,22.56
